Time;durP1;ratioP1;P1;durP2;ratioP2;P2;SDS_P1;SDS_P2;PMS_P1;PMS_P2;Temp;Humidity;BMP_temperature;BMP_pressure;BME280_temperature;BME280_humidity;BME280_pressure;Samples;Min_cycle;Max_cycle;Signal;HPM_P1;HPM_P2
2023/11/15 00:01:38;;;;;;;29.13;8.95;;;;;;;8.25;100.00;100128.06;5049963;28;20017;-70
2023/11/15 00:04:04;;;;;;;19.50;9.55;;;;;;;8.22;100.00;100130.50;5049484;28;20101;-73
2023/11/15 00:06:29;;;;;;;16.88;9.18;;;;;;;8.04;100.00;100101.47;5050148;28;20032;-72
2023/11/15 00:08:55;;;;;;;14.45;9.15;;;;;;;8.23;100.00;100134.81;5049887;28;20543;-72
2023/11/15 00:11:21;;;;;;;28.13;10.38;;;;;;;8.23;100.00;100139.97;5049837;28;20028;-72
2023/11/15 00:13:50;;;;;;;24.38;8.98;;;;;;;8.07;100.00;100125.63;5049451;28;20028;-70
2023/11/15 00:16:16;;;;;;;18.00;8.70;;;;;;;8.12;100.00;100136.06;5050246;28;20032;-72
2023/11/15 00:18:42;;;;;;;16.60;7.82;;;;;;;8.22;100.00;100152.75;5049355;28;20036;-72
2023/11/15 00:21:08;;;;;;;26.33;8.50;;;;;;;8.18;100.00;100161.16;5049870;28;20074;-70
2023/11/15 00:23:34;;;;;;;32.28;8.50;;;;;;;8.03;100.00;100167.41;5031728;28;20548;-72
2023/11/15 00:26:00;;;;;;;21.60;8.95;;;;;;;7.88;100.00;100147.09;5049432;28;20116;-70
2023/11/15 00:28:26;;;;;;;37.28;9.82;;;;;;;7.96;100.00;100149.97;5049878;28;20078;-69
2023/11/15 00:30:53;;;;;;;41.22;8.90;;;;;;;7.66;100.00;100129.00;5049773;28;20153;-72
2023/11/15 00:33:18;;;;;;;26.40;7.88;;;;;;;7.46;100.00;100093.03;5049346;28;20017;-69
2023/11/15 00:35:44;;;;;;;23.30;8.45;;;;;;;7.73;100.00;100120.75;5030971;28;20124;-69
2023/11/15 00:38:11;;;;;;;16.02;8.52;;;;;;;7.56;100.00;100100.34;5030612;28;20065;-71
2023/11/15 00:40:37;;;;;;;28.02;9.05;;;;;;;7.41;100.00;100067.19;5049642;28;20029;-71
2023/11/15 00:43:03;;;;;;;29.30;9.15;;;;;;;7.55;100.00;100090.00;5049738;28;20029;-70
2023/11/15 00:45:30;;;;;;;40.90;8.77;;;;;;;7.08;100.00;100010.09;5049472;28;20464;-69
2023/11/15 00:47:56;;;;;;;31.55;9.43;;;;;;;7.50;100.00;100106.91;5048744;28;20021;-69
2023/11/15 00:50:21;;;;;;;32.78;10.20;;;;;;;7.02;100.00;100005.56;5049376;28;20051;-70
2023/11/15 00:52:47;;;;;;;61.00;10.10;;;;;;;7.47;100.00;100088.78;5031352;28;20067;-71
2023/11/15 00:55:12;;;;;;;39.10;10.55;;;;;;;7.43;100.00;100087.78;5049799;28;20024;-71
2023/11/15 00:57:39;;;;;;;57.25;11.10;;;;;;;7.28;100.00;100078.59;5049518;28;20036;-70
2023/11/15 01:00:22;;;;;;;62.38;11.65;;;;;;;7.29;100.00;100097.47;5049292;28;20029;-72
2023/11/15 01:02:48;;;;;;;52.35;10.65;;;;;;;7.15;100.00;100111.34;5049030;28;20029;-70
2023/11/15 01:05:13;;;;;;;31.73;11.63;;;;;;;7.05;100.00;100118.66;5049533;28;20032;-71
2023/11/15 01:07:39;;;;;;;15.60;10.55;;;;;;;6.87;100.00;100116.13;5049135;28;20025;-70
2023/11/15 01:10:09;;;;;;;15.43;11.38;;;;;;;6.72;100.00;100118.84;5049152;28;20027;-71
2023/11/15 01:12:34;;;;;;;14.35;10.65;;;;;;;6.70;100.00;100110.19;5048696;28;20150;-71
2023/11/15 01:15:00;;;;;;;13.25;9.95;;;;;;;6.79;100.00;100107.16;5049008;28;20112;-70
2023/11/15 01:17:27;;;;;;;14.90;10.38;;;;;;;6.88;100.00;100099.91;5049183;28;20018;-70
2023/11/15 01:19:53;;;;;;;15.02;10.82;;;;;;;6.82;100.00;100089.38;5049242;28;20414;-70
2023/11/15 01:22:18;;;;;;;15.45;10.60;;;;;;;6.87;100.00;100072.50;5049493;28;20021;-69
2023/11/15 01:24:44;;;;;;;16.05;10.10;;;;;;;6.92;100.00;100068.44;5049115;28;20029;-69
2023/11/15 01:27:09;;;;;;;17.83;11.10;;;;;;;6.91;100.00;100050.41;5048887;28;20013;-70
2023/11/15 01:29:35;;;;;;;18.13;10.00;;;;;;;7.01;100.00;100075.66;5046934;28;20029;-72
2023/11/15 01:32:00;;;;;;;18.02;11.68;;;;;;;6.68;100.00;100001.53;5049453;28;20122;-72
2023/11/15 01:34:26;;;;;;;17.60;11.27;;;;;;;6.93;100.00;100057.38;5044995;28;20033;-73
2023/11/15 01:36:51;;;;;;;20.55;11.85;;;;;;;6.89;100.00;100044.31;5042865;28;20029;-70
2023/11/15 01:39:17;;;;;;;21.65;11.40;;;;;;;7.02;100.00;100056.91;5049194;28;20017;-71
2023/11/15 01:41:48;;;;;;;18.25;11.43;;;;;;;7.17;100.00;100055.84;5052775;28;20025;-71
2023/11/15 01:44:18;;;;;;;18.75;11.65;;;;;;;7.11;100.00;100021.34;5053963;28;20376;-69
2023/11/15 01:46:50;;;;;;;21.05;12.65;;;;;;;7.00;100.00;99978.09;5052892;28;20052;-69
2023/11/15 01:49:17;;;;;;;19.85;12.05;;;;;;;7.49;100.00;100038.34;5053810;28;20032;-69
2023/11/15 01:51:44;;;;;;;19.40;12.43;;;;;;;7.57;100.00;100035.28;5052936;28;20045;-71
2023/11/15 01:54:11;;;;;;;15.98;10.30;;;;;;;7.52;100.00;100016.25;5052248;28;20546;-70
2023/11/15 01:56:38;;;;;;;12.85;10.23;;;;;;;7.17;100.00;99932.63;5052240;28;20024;-72
2023/11/15 01:59:04;;;;;;;13.10;9.38;;;;;;;7.69;100.00;100018.63;5052387;28;20029;-72
2023/11/15 02:01:31;;;;;;;15.20;10.10;;;;;;;7.61;100.00;100036.31;5052022;28;20036;-71
2023/11/15 02:03:57;;;;;;;21.17;9.93;;;;;;;7.35;100.00;100010.41;5034303;28;20128;-71
2023/11/15 02:06:27;;;;;;;13.98;9.40;;;;;;;7.47;100.00;100019.44;5052386;28;20542;-70
2023/11/15 02:08:53;;;;;;;13.13;9.45;;;;;;;7.51;100.00;100023.91;5051413;28;20063;-71
2023/11/15 02:11:18;;;;;;;14.30;9.27;;;;;;;7.50;100.00;100014.44;5046761;28;20060;-71
2023/11/15 02:13:44;;;;;;;13.85;9.80;;;;;;;7.41;100.00;99994.38;5052159;28;20031;-74
2023/11/15 02:16:10;;;;;;;14.75;9.82;;;;;;;7.30;100.00;99988.78;5051520;28;20032;-72
2023/11/15 02:18:36;;;;;;;14.15;9.90;;;;;;;7.38;100.00;100012.22;5000312;28;20119;-71
2023/11/15 02:21:01;;;;;;;22.42;12.15;;;;;;;7.12;100.00;99965.78;5052324;28;20523;-73
2023/11/15 02:23:28;;;;;;;19.00;10.90;;;;;;;7.35;100.00;99999.25;5051815;28;20066;-72
2023/11/15 02:25:54;;;;;;;14.00;9.70;;;;;;;7.52;100.00;100025.66;5051042;28;20041;-70
2023/11/15 02:28:20;;;;;;;18.80;10.02;;;;;;;7.40;100.00;99990.94;5051846;28;20028;-72
2023/11/15 02:30:45;;;;;;;19.40;12.77;;;;;;;7.41;100.00;99992.69;5051245;28;20025;-72
2023/11/15 02:33:12;;;;;;;37.97;18.83;;;;;;;7.49;100.00;100016.13;5051223;28;20479;-71
2023/11/15 02:35:38;;;;;;;27.85;15.20;;;;;;;7.42;100.00;100021.81;5051190;28;20036;-69
2023/11/15 02:38:03;;;;;;;33.72;14.07;;;;;;;6.94;100.00;99945.31;5045770;28;20040;-71
2023/11/15 02:40:29;;;;;;;32.20;14.05;;;;;;;7.29;100.00;100010.16;5050743;28;20025;-70
2023/11/15 02:42:54;;;;;;;34.30;13.25;;;;;;;7.25;100.00;100009.16;5051536;28;20056;-71
2023/11/15 02:45:20;;;;;;;38.42;13.27;;;;;;;7.25;100.00;99998.88;5051630;28;20036;-69
2023/11/15 02:47:45;;;;;;;52.90;14.13;;;;;;;7.26;100.00;100000.63;5051078;28;20048;-70
2023/11/15 02:50:11;;;;;;;26.45;13.32;;;;;;;7.23;100.00;100000.50;5051209;28;20021;-71
2023/11/15 02:52:37;;;;;;;36.35;13.07;;;;;;;7.28;100.00;100010.97;5051181;28;20053;-71
2023/11/15 02:55:03;;;;;;;37.80;14.27;;;;;;;7.40;100.00;100026.91;5050374;28;20043;-73
2023/11/15 02:57:29;;;;;;;40.95;14.77;;;;;;;7.29;100.00;100021.28;5050871;28;20116;-70
2023/11/15 02:59:55;;;;;;;31.27;13.18;;;;;;;7.41;100.00;100041.50;5033646;28;20107;-69
2023/11/15 03:02:20;;;;;;;27.45;14.95;;;;;;;7.33;100.00;100034.25;5051112;28;20036;-69
2023/11/15 03:04:46;;;;;;;24.83;14.23;;;;;;;6.83;100.00;99950.00;5051257;28;20086;-70
2023/11/15 03:07:13;;;;;;;29.23;14.70;;;;;;;7.46;100.00;100039.09;5050949;28;20483;-69
2023/11/15 03:09:38;;;;;;;25.42;15.02;;;;;;;7.48;100.00;100027.22;5050896;28;20078;-69
2023/11/15 03:12:04;;;;;;;19.90;13.57;;;;;;;7.49;100.00;100031.53;5050916;28;20022;-71
2023/11/15 03:14:30;;;;;;;27.42;13.32;;;;;;;7.49;100.00;100030.66;5051293;28;20133;-70
2023/11/15 03:17:05;;;;;;;22.00;14.40;;;;;;;7.55;100.00;100054.91;5050811;28;20110;-72
2023/11/15 03:19:31;;;;;;;22.23;13.07;;;;;;;7.44;100.00;100041.63;5050783;28;20029;-71
2023/11/15 03:21:56;;;;;;;23.83;12.98;;;;;;;6.85;100.00;99940.66;5049951;28;20729;-72
2023/11/15 03:24:22;;;;;;;26.13;12.45;;;;;;;7.56;100.00;100050.66;5050989;28;20116;-70
2023/11/15 03:26:47;;;;;;;28.17;14.18;;;;;;;7.26;100.00;99995.50;5050563;28;20037;-70
2023/11/15 03:29:13;;;;;;;22.92;12.45;;;;;;;7.36;100.00;99983.91;5050770;28;20048;-74
2023/11/15 03:31:39;;;;;;;27.98;13.30;;;;;;;7.85;100.00;100050.97;5014582;28;20484;-71
2023/11/15 03:34:04;;;;;;;34.90;12.23;;;;;;;7.96;100.00;100052.28;5050734;28;20104;-72
2023/11/15 03:36:32;;;;;;;33.20;13.55;;;;;;;7.57;100.00;99957.38;5049681;28;20400;-72
2023/11/15 03:38:58;;;;;;;39.08;14.63;;;;;;;8.03;100.00;100031.16;5050422;28;20029;-70
2023/11/15 03:41:24;;;;;;;36.20;13.60;;;;;;;8.04;100.00;100024.34;5050556;28;20036;-73
2023/11/15 03:43:51;;;;;;;28.83;13.48;;;;;;;7.96;100.00;100008.59;5032789;28;20040;-71
2023/11/15 03:46:17;;;;;;;22.75;13.07;;;;;;;8.01;100.00;100021.63;5049779;28;20021;-70
2023/11/15 03:48:43;;;;;;;26.50;13.02;;;;;;;7.39;100.00;99950.66;5050525;28;20045;-72
2023/11/15 03:51:08;;;;;;;32.35;13.80;;;;;;;7.57;100.00;99972.78;5049854;28;20041;-72
2023/11/15 03:53:34;;;;;;;33.55;15.13;;;;;;;7.96;100.00;100018.00;5050481;28;20079;-70
2023/11/15 03:55:59;;;;;;;23.42;13.50;;;;;;;8.04;100.00;100016.63;5049842;28;20029;-70
2023/11/15 03:58:25;;;;;;;29.95;13.77;;;;;;;8.00;100.00;100012.16;5050205;28;20407;-70
2023/11/15 04:00:50;;;;;;;25.98;14.02;;;;;;;8.00;100.00;100017.31;5049893;28;20029;-73
2023/11/15 04:03:16;;;;;;;26.73;13.70;;;;;;;7.85;100.00;100013.31;5050305;28;20033;-75
2023/11/15 04:05:42;;;;;;;29.13;12.90;;;;;;;7.33;100.00;99928.97;5049012;28;20025;-71
2023/11/15 04:08:09;;;;;;;24.27;12.73;;;;;;;7.78;100.00;100011.31;5014489;28;20037;-72
2023/11/15 04:10:34;;;;;;;26.17;13.73;;;;;;;7.78;100.00;100019.03;5049298;28;20487;-70
2023/11/15 04:13:00;;;;;;;32.28;15.40;;;;;;;7.76;100.00;100018.97;5050138;28;20033;-70
2023/11/15 04:15:25;;;;;;;34.38;16.45;;;;;;;7.68;100.00;100006.63;5049776;28;20445;-73
2023/11/15 04:17:51;;;;;;;28.00;12.52;;;;;;;7.67;100.00;100010.00;4998178;28;20029;-70
2023/11/15 04:20:17;;;;;;;34.13;14.93;;;;;;;7.57;100.00;100001.91;5049322;28;20056;-73
2023/11/15 04:22:43;;;;;;;46.25;15.88;;;;;;;7.71;100.00;100028.19;5049818;28;20021;-71
2023/11/15 04:25:09;;;;;;;62.70;16.73;;;;;;;7.74;100.00;100009.44;5049571;28;20079;-70
2023/11/15 04:27:34;;;;;;;44.22;15.32;;;;;;;7.66;100.00;100003.09;5049854;28;20074;-71
2023/11/15 04:30:00;;;;;;;56.20;16.63;;;;;;;7.35;100.00;99955.59;5049824;28;20513;-69
2023/11/15 04:32:25;;;;;;;48.17;14.98;;;;;;;7.63;100.00;100023.50;5049527;28;20052;-71
2023/11/15 04:34:52;;;;;;;52.72;13.30;;;;;;;7.16;100.00;99954.81;5049189;28;20025;-71
2023/11/15 04:37:19;;;;;;;46.00;13.48;;;;;;;7.51;100.00;100022.19;5031261;28;20025;-71
2023/11/15 04:39:47;;;;;;;42.00;13.18;;;;;;;7.47;100.00;100024.59;5044280;28;20025;-71
2023/11/15 04:42:13;;;;;;;53.10;13.68;;;;;;;7.32;100.00;100017.09;5050829;28;20025;-72
2023/11/15 04:44:38;;;;;;;45.25;13.88;;;;;;;7.46;100.00;100015.97;5050751;28;20035;-71
2023/11/15 04:47:05;;;;;;;30.73;13.32;;;;;;;7.18;100.00;99950.63;5049674;28;20061;-69
2023/11/15 04:49:31;;;;;;;30.60;13.02;;;;;;;7.51;100.00;99982.78;5048994;28;20033;-71
2023/11/15 04:51:57;;;;;;;41.63;14.38;;;;;;;7.45;100.00;99988.53;5049302;28;20076;-76
2023/11/15 04:54:22;;;;;;;38.45;14.43;;;;;;;7.57;100.00;100006.16;5049258;28;20055;-71
2023/11/15 04:56:48;;;;;;;27.23;13.35;;;;;;;7.60;100.00;99996.91;5049399;28;20043;-71
2023/11/15 04:59:13;;;;;;;33.30;13.35;;;;;;;7.40;100.00;99957.56;5049095;28;20113;-70
2023/11/15 05:01:41;;;;;;;32.00;15.18;;;;;;;7.18;100.00;99921.50;5049435;28;20028;-70
2023/11/15 05:04:07;;;;;;;19.13;12.20;;;;;;;7.50;100.00;99968.19;5048865;28;20044;-75
2023/11/15 05:06:33;;;;;;;37.58;14.00;;;;;;;7.05;100.00;99892.78;5049407;28;20140;-70
2023/11/15 05:08:59;;;;;;;45.70;14.70;;;;;;;7.33;100.00;99937.56;5049267;28;20021;-70
2023/11/15 05:11:25;;;;;;;25.02;13.10;;;;;;;7.42;100.00;99940.50;5049459;28;20123;-71
2023/11/15 05:13:51;;;;;;;38.55;14.57;;;;;;;7.39;100.00;99942.94;5014169;28;20106;-69
2023/11/15 05:16:17;;;;;;;26.30;14.35;;;;;;;7.32;100.00;99943.50;5049309;28;20032;-71
2023/11/15 05:18:42;;;;;;;32.53;15.35;;;;;;;7.38;100.00;99943.75;5052114;28;20044;-75
2023/11/15 05:21:08;;;;;;;37.55;14.45;;;;;;;7.23;100.00;99931.16;5053064;28;20544;-74
2023/11/15 05:23:33;;;;;;;49.63;15.00;;;;;;;7.43;100.00;99959.38;5010616;28;20838;-71
2023/11/15 05:26:01;;;;;;;49.25;14.25;;;;;;;7.48;100.00;99944.13;5010651;28;20110;-71
2023/11/15 05:28:27;;;;;;;34.88;13.63;;;;;;;7.51;100.00;99937.44;5010692;28;20474;-72
2023/11/15 05:30:54;;;;;;;29.77;12.77;;;;;;;7.39;100.00;99907.00;5009991;28;20045;-71
2023/11/15 05:33:20;;;;;;;29.60;13.07;;;;;;;7.39;100.00;99909.56;4977436;28;20107;-72
2023/11/15 05:35:45;;;;;;;23.98;12.55;;;;;;;7.53;100.00;99935.81;5010209;28;20029;-73
2023/11/15 05:38:11;;;;;;;34.10;13.68;;;;;;;7.52;100.00;99917.78;5009961;28;20042;-71
2023/11/15 05:40:36;;;;;;;35.20;14.90;;;;;;;7.17;100.00;99841.06;5008471;28;20117;-71
2023/11/15 05:43:02;;;;;;;51.17;16.02;;;;;;;7.32;100.00;99887.03;5006877;28;20046;-72
2023/11/15 05:45:27;;;;;;;63.25;19.40;;;;;;;7.64;100.00;99930.22;5010305;28;20026;-70
2023/11/15 05:47:53;;;;;;;59.22;20.58;;;;;;;7.56;100.00;99894.84;5009907;28;20030;-72
2023/11/15 05:50:19;;;;;;;51.22;20.58;;;;;;;7.72;100.00;99911.72;5010345;28;20041;-70
2023/11/15 05:52:44;;;;;;;63.80;18.30;;;;;;;6.60;100.00;99741.25;5009638;28;20050;-71
2023/11/15 05:55:12;;;;;;;59.58;21.25;;;;;;;7.57;100.00;99926.53;5041286;28;20502;-74
2023/11/15 05:57:38;;;;;;;65.30;21.40;;;;;;;7.59;100.00;99912.06;5052644;28;20028;-71
2023/11/15 06:00:12;;;;;;;51.40;20.45;;;;;;;7.73;100.00;99915.19;5052400;28;20043;-72
2023/11/15 06:02:38;;;;;;;53.28;18.02;;;;;;;7.57;100.00;99883.72;5050252;28;20025;-72
2023/11/15 06:05:05;;;;;;;52.22;17.90;;;;;;;7.60;100.00;99889.00;5052351;28;20040;-72
2023/11/15 06:07:30;;;;;;;42.40;17.30;;;;;;;7.78;100.00;99911.97;5052218;28;20427;-71
2023/11/15 06:09:55;;;;;;;46.47;15.80;;;;;;;7.77;100.00;99911.91;5051571;28;20029;-71
2023/11/15 06:12:22;;;;;;;32.63;13.25;;;;;;;7.72;100.00;99906.59;5050390;28;20040;-70
2023/11/15 06:14:47;;;;;;;37.17;13.30;;;;;;;7.18;100.00;99811.13;5052073;28;20107;-72
2023/11/15 06:17:13;;;;;;;30.67;13.50;;;;;;;7.78;100.00;99905.97;5052262;28;20476;-73
2023/11/15 06:19:38;;;;;;;33.50;12.35;;;;;;;7.66;100.00;99903.75;5052135;28;20021;-71
2023/11/15 06:22:04;;;;;;;20.30;11.18;;;;;;;7.45;100.00;99868.72;5051955;28;20071;-72
2023/11/15 06:24:29;;;;;;;38.13;14.15;;;;;;;7.71;100.00;99891.09;5034335;28;20112;-71
2023/11/15 06:26:55;;;;;;;37.47;13.45;;;;;;;7.62;100.00;99891.63;5051497;28;20091;-69
2023/11/15 06:29:21;;;;;;;24.70;12.80;;;;;;;7.58;100.00;99882.91;5051584;28;20032;-76
2023/11/15 06:31:48;;;;;;;24.77;14.05;;;;;;;7.50;100.00;99866.34;5051652;28;20052;-75
2023/11/15 06:34:13;;;;;;;41.28;15.57;;;;;;;7.70;100.00;99902.19;5051797;28;20056;-72
2023/11/15 06:36:44;;;;;;;34.63;14.98;;;;;;;7.77;100.00;99909.34;5044532;28;20055;-73
2023/11/15 06:39:12;;;;;;;36.70;14.50;;;;;;;7.83;100.00;99901.00;5051771;28;20037;-73
2023/11/15 06:41:38;;;;;;;42.17;14.75;;;;;;;7.64;100.00;99860.84;5048271;28;20421;-72
2023/11/15 06:44:08;;;;;;;50.45;15.20;;;;;;;7.88;100.00;99889.19;5051350;28;20037;-72
2023/11/15 06:46:40;;;;;;;57.72;15.35;;;;;;;7.93;100.00;99906.53;5051569;28;20036;-72
2023/11/15 06:49:06;;;;;;;28.63;14.63;;;;;;;7.98;100.00;99904.16;5050406;28;20029;-74
2023/11/15 06:51:32;;;;;;;39.83;15.57;;;;;;;7.98;100.00;99895.56;5043519;28;20509;-73
2023/11/15 06:53:58;;;;;;;42.70;15.77;;;;;;;8.01;100.00;99893.09;5051512;28;20033;-72
2023/11/15 06:56:23;;;;;;;38.72;20.42;;;;;;;7.44;100.00;99778.78;5051284;28;20116;-72
2023/11/15 06:58:48;;;;;;;40.58;15.27;;;;;;;8.21;100.00;99891.28;5050904;28;20072;-75
2023/11/15 07:01:14;;;;;;;37.35;15.88;;;;;;;8.20;100.00;99871.53;5015824;28;20049;-73
2023/11/15 07:03:45;;;;;;;41.92;17.98;;;;;;;8.30;100.00;99872.75;5033701;28;20033;-72
2023/11/15 07:06:11;;;;;;;45.95;14.30;;;;;;;8.49;100.00;99890.63;5048637;28;20024;-72
2023/11/15 07:08:37;;;;;;;28.88;12.85;;;;;;;8.54;100.00;99886.53;5051097;28;20525;-72
2023/11/15 07:11:02;;;;;;;28.33;12.90;;;;;;;8.63;100.00;99877.38;5051344;28;20111;-73
2023/11/15 07:13:31;;;;;;;32.10;13.02;;;;;;;8.65;100.00;99868.00;5050561;28;20499;-73
2023/11/15 07:16:01;;;;;;;25.27;13.10;;;;;;;8.68;100.00;99865.56;5051158;28;20041;-73
2023/11/15 07:18:28;;;;;;;28.92;13.30;;;;;;;8.71;100.00;99852.78;5033218;28;20044;-72
2023/11/15 07:20:54;;;;;;;45.38;12.82;;;;;;;8.73;100.00;99834.03;5051193;28;20048;-72
2023/11/15 07:23:19;;;;;;;22.35;12.05;;;;;;;8.78;100.00;99843.59;5050931;28;20028;-74
2023/11/15 07:25:44;;;;;;;24.05;12.25;;;;;;;8.67;100.00;99802.94;5050755;28;20025;-71
2023/11/15 07:28:12;;;;;;;19.90;13.25;;;;;;;8.99;100.00;99840.88;5050168;28;20431;-73
2023/11/15 07:30:37;;;;;;;30.02;14.70;;;;;;;8.97;100.00;99827.06;5049927;28;20074;-72
2023/11/15 07:33:03;;;;;;;23.55;13.57;;;;;;;9.04;100.00;99832.44;5051104;28;20029;-73
2023/11/15 07:35:29;;;;;;;23.00;14.40;;;;;;;9.10;100.00;99829.22;5050689;28;20025;-72
2023/11/15 07:37:54;;;;;;;21.42;13.15;;;;;;;8.74;100.00;99784.28;5050619;28;20032;-71
2023/11/15 07:40:22;;;;;;;19.58;13.65;;;;;;;9.19;100.00;99856.97;5049807;28;20402;-75
2023/11/15 07:42:49;;;;;;;23.83;13.85;;;;;;;9.22;100.00;99865.66;5051028;28;20044;-75
2023/11/15 07:45:18;;;;;;;21.35;14.43;;;;;;;9.24;100.00;99852.84;5050772;28;20095;-73
2023/11/15 07:47:43;;;;;;;19.35;14.15;;;;;;;9.36;100.00;99871.25;5050441;28;20110;-72
2023/11/15 07:50:10;;;;;;;22.13;14.63;;;;;;;9.18;100.00;99820.03;5050234;28;20076;-71
2023/11/15 07:52:37;;;;;;;22.13;15.05;;;;;;;9.43;100.00;99849.13;5050073;28;20049;-72
2023/11/15 07:55:03;;;;;;;20.58;14.32;;;;;;;9.33;100.00;99844.53;5050040;28;20044;-75
2023/11/15 07:57:29;;;;;;;20.17;14.55;;;;;;;9.17;100.00;99783.91;5050441;28;20060;-73
2023/11/15 07:59:55;;;;;;;21.50;14.73;;;;;;;9.49;100.00;99810.66;5046414;28;20056;-72
2023/11/15 08:02:22;;;;;;;21.73;16.33;;;;;;;9.64;100.00;99820.56;5048200;28;20139;-73
2023/11/15 08:04:49;;;;;;;20.00;14.48;;;;;;;9.39;100.00;99755.44;5040074;28;20752;-73
2023/11/15 08:07:16;;;;;;;20.52;15.38;;;;;;;9.84;100.00;99838.34;5047160;28;20032;-73
2023/11/15 08:09:41;;;;;;;27.63;17.95;;;;;;;9.91;100.00;99829.97;5037409;28;20033;-72
2023/11/15 08:12:07;;;;;;;23.35;17.58;;;;;;;9.97;100.00;99811.22;5050011;28;20475;-73
2023/11/15 08:14:33;;;;;;;25.38;18.83;;;;;;;10.05;100.00;99796.84;5050230;28;20029;-74
2023/11/15 08:17:00;;;;;;;23.95;18.60;;;;;;;9.80;100.00;99728.25;5049972;28;20581;-72
2023/11/15 08:19:25;;;;;;;25.55;18.50;;;;;;;10.20;100.00;99789.53;5046681;28;20508;-72
2023/11/15 08:21:56;;;;;;;23.35;17.88;;;;;;;10.41;100.00;99805.59;5043934;28;20112;-74
2023/11/15 08:24:22;;;;;;;20.45;15.50;;;;;;;10.47;100.00;99798.00;5050255;28;20052;-72
2023/11/15 08:26:53;;;;;;;20.05;15.32;;;;;;;10.61;100.00;99813.84;5050033;28;20021;-73
2023/11/15 08:29:20;;;;;;;19.75;14.95;;;;;;;10.56;100.00;99808.56;5049517;28;20032;-72
2023/11/15 08:31:45;;;;;;;19.52;14.48;;;;;;;10.54;100.00;99809.34;5050072;28;20399;-72
2023/11/15 08:34:11;;;;;;;18.02;14.15;;;;;;;10.56;100.00;99813.72;5049959;28;20021;-73
2023/11/15 08:36:38;;;;;;;19.63;13.70;;;;;;;10.74;100.00;99828.84;5032076;28;20049;-71
2023/11/15 08:39:08;;;;;;;19.08;14.45;;;;;;;10.29;100.00;99734.75;5049662;28;20121;-75
2023/11/15 08:41:34;;;;;;;20.25;15.23;;;;;;;10.88;100.00;99817.97;5051911;28;20411;-73
2023/11/15 08:44:00;;;;;;;18.23;14.35;;;;;;;10.93;100.00;99806.03;5049455;28;20032;-72
2023/11/15 08:46:27;;;;;;;18.95;15.15;;;;;;;11.07;100.00;99780.56;5047883;28;20040;-73
2023/11/15 08:48:53;;;;;;;17.90;15.00;;;;;;;11.24;100.00;99786.09;5049145;28;20407;-74
2023/11/15 08:51:19;;;;;;;18.58;15.23;;;;;;;11.44;100.00;99777.09;5050837;28;20021;-71
2023/11/15 08:53:46;;;;;;;17.13;14.10;;;;;;;11.57;100.00;99790.31;5035486;28;20412;-72
2023/11/15 08:56:13;;;;;;;18.67;14.65;;;;;;;11.50;100.00;99755.69;5052949;28;20032;-75
2023/11/15 08:58:39;;;;;;;15.85;12.95;;;;;;;11.83;100.00;99775.34;5053486;28;20064;-72
2023/11/15 09:01:05;;;;;;;20.65;13.88;;;;;;;11.75;100.00;99757.09;5053323;28;20056;-74
2023/11/15 09:03:32;;;;;;;16.25;12.07;;;;;;;11.78;100.00;99745.94;5053279;28;20467;-74
2023/11/15 09:05:59;;;;;;;16.42;12.90;;;;;;;12.07;100.00;99758.59;5053481;28;20067;-75
2023/11/15 09:08:27;;;;;;;16.95;12.27;;;;;;;11.76;100.00;99670.03;5049343;28;20135;-74
2023/11/15 09:10:52;;;;;;;15.60;11.18;;;;;;;11.85;100.00;99677.97;5052943;28;20470;-73
2023/11/15 09:13:19;;;;;;;14.93;11.55;;;;;;;12.16;100.00;99748.41;5050158;28;20060;-73
2023/11/15 09:15:50;;;;;;;15.88;11.63;;;;;;;12.17;100.00;99757.06;5053026;28;20025;-72
2023/11/15 09:18:19;;;;;;;15.93;11.77;;;;;;;12.36;100.00;99748.81;5053153;28;20020;-71
2023/11/15 09:20:49;;;;;;;19.25;13.20;;;;;;;12.57;100.00;99742.25;5053363;28;20074;-71
2023/11/15 09:23:16;;;;;;;15.60;12.63;;;;;;;12.77;100.00;99745.16;5053005;28;20033;-72
2023/11/15 09:25:42;;;;;;;16.75;12.43;;;;;;;12.77;100.00;99730.50;5053127;28;20083;-74
2023/11/15 09:28:10;;;;;;;16.48;12.85;;;;;;;12.67;100.00;99692.34;5052998;28;20032;-73
2023/11/15 09:30:36;;;;;;;15.25;12.55;;;;;;;12.66;100.00;99645.72;5052703;28;20560;-73
2023/11/15 09:33:05;;;;;;;14.25;11.80;;;;;;;13.27;100.00;99728.63;5053015;28;20033;-73
2023/11/15 09:35:31;;;;;;;13.73;11.18;;;;;;;13.42;100.00;99708.16;5052900;28;20024;-74
2023/11/15 09:37:58;;;;;;;11.40;8.98;;;;;;;13.64;100.00;99718.78;5053322;28;20752;-70
2023/11/15 09:40:25;;;;;;;12.52;9.18;;;;;;;13.62;100.00;99704.06;5052082;28;20075;-71
2023/11/15 09:42:55;;;;;;;12.38;8.85;;;;;;;13.53;100.00;99689.25;5053015;28;20028;-74
2023/11/15 09:45:23;;;;;;;11.25;9.57;;;;;;;13.74;100.00;99694.72;5051783;28;20041;-72
2023/11/15 09:47:54;;;;;;;13.77;10.57;;;;;;;13.93;100.00;99691.44;5052990;28;20466;-72
2023/11/15 09:50:24;;;;;;;13.68;10.00;;;;;;;14.27;100.00;99707.34;5051303;28;20090;-72
2023/11/15 09:52:50;;;;;;;;;;;;;;;14.15;100.00;99658.78;5052996;28;20053;-72
2023/11/15 09:55:21;;;;;;;11.93;8.85;;;;;;;14.24;100.00;99687.41;5051809;28;19991;-70
2023/11/15 09:57:51;;;;;;;10.77;7.47;;;;;;;14.29;100.00;99703.91;5015809;28;20051;-73
2023/11/15 10:00:22;;;;;;;10.27;7.43;;;;;;;14.31;100.00;99690.97;5051193;28;20490;-73
2023/11/15 10:02:48;;;;;;;9.40;7.20;;;;;;;14.38;100.00;99688.44;5017151;28;20048;-71
2023/11/15 10:05:19;;;;;;;9.63;6.88;;;;;;;14.67;100.00;99700.81;5052590;28;20024;-70
2023/11/15 10:07:50;;;;;;;9.18;7.38;;;;;;;14.58;100.00;99690.34;5051743;28;20406;-71
2023/11/15 10:10:24;;;;;;;15.43;7.93;;;;;;;14.27;100.00;99622.56;5052191;28;20124;-71
2023/11/15 10:12:53;;;;;;;7.55;6.63;;;;;;;14.72;100.00;99691.31;5047576;28;20104;-71
2023/11/15 10:15:29;;;;;;;10.13;6.97;;;;;;;14.82;100.00;99692.25;5052598;28;20025;-73
2023/11/15 10:17:55;;;;;;;9.40;6.20;;;;;;;14.92;100.00;99674.16;5052098;28;20499;-71
2023/11/15 10:20:28;;;;;;;9.23;6.15;;;;;;;15.04;100.00;99682.88;5052390;28;20035;-70
2023/11/15 10:22:55;;;;;;;10.88;6.28;;;;;;;15.12;100.00;99690.72;5051424;28;20025;-73
2023/11/15 10:25:20;;;;;;;10.40;6.70;;;;;;;15.23;100.00;99684.69;5052100;28;20057;-71
2023/11/15 10:27:46;;;;;;;9.82;6.35;;;;;;;15.22;100.00;99673.44;5032834;28;20056;-71
2023/11/15 10:30:15;;;;;;;8.48;6.18;;;;;;;15.02;100.00;99640.41;5051596;28;20044;-71
2023/11/15 10:32:44;;;;;;;8.32;6.05;;;;;;;15.24;100.00;99656.13;5035190;28;20573;-70
2023/11/15 10:35:10;;;;;;;8.80;5.93;;;;;;;15.51;100.00;99663.19;5024356;28;20040;-73
2023/11/15 10:37:51;;;;;;;7.57;5.78;;;;;;;15.84;100.00;99691.94;5038915;28;20025;-71
2023/11/15 10:40:21;;;;;;;7.70;5.70;;;;;;;15.49;100.00;99627.63;5048714;28;20041;-73
2023/11/15 10:42:50;;;;;;;8.68;5.50;;;;;;;15.65;100.00;99639.81;5051777;28;20403;-70
2023/11/15 10:45:16;;;;;;;11.27;5.35;;;;;;;15.37;100.00;99608.50;5051161;28;20427;-70
2023/11/15 10:47:53;;;;;;;7.20;4.90;;;;;;;15.46;100.00;99612.84;5050928;28;20507;-71
2023/11/15 10:50:21;;;;;;;19.83;5.97;;;;;;;15.80;100.00;99670.22;5050424;28;20120;-71
2023/11/15 10:52:49;;;;;;;11.70;4.72;;;;;;;15.83;100.00;99677.19;5050657;28;20085;-73
2023/11/15 10:55:17;;;;;;;6.63;5.07;;;;;;;15.81;100.00;99679.75;5033694;28;20044;-71
2023/11/15 10:57:49;;;;;;;8.50;5.13;;;;;;;15.87;100.00;99688.47;4983331;28;20044;-72
2023/11/15 11:00:17;;;;;;;11.05;4.95;;;;;;;15.91;100.00;99687.63;5050782;28;20033;-73
2023/11/15 11:02:44;;;;;;;8.18;5.25;;;;;;;15.79;100.00;99691.03;5051605;28;20116;-73
2023/11/15 11:05:15;;;;;;;8.38;5.78;;;;;;;15.58;100.00;99677.06;5033330;28;20032;-71
2023/11/15 11:07:57;;;;;;;8.60;6.22;;;;;;;15.71;100.00;99706.59;5051446;28;20617;-70
2023/11/15 11:10:33;;;;;;;12.27;7.32;;;;;;;15.53;100.00;99702.19;5033356;28;20060;-73
2023/11/15 11:12:58;;;;;;;11.25;7.32;;;;;;;15.63;100.00;99711.78;5050528;28;20546;-71